sensor_id;sensor_type;location;lat;lon;timestamp;temperature;humidity
36710;DHT22;22694;51.040;3.684;2022-12-01T00:00:36;12.00;90.90
36710;DHT22;22694;51.040;3.684;2022-12-01T00:03:02;11.80;90.90
36710;DHT22;22694;51.040;3.684;2022-12-01T00:05:28;11.80;90.90
36710;DHT22;22694;51.040;3.684;2022-12-01T00:07:54;11.80;90.90
36710;DHT22;22694;51.040;3.684;2022-12-01T00:10:21;11.80;90.90
36710;DHT22;22694;51.040;3.684;2022-12-01T00:12:54;11.80;90.90
36710;DHT22;22694;51.040;3.684;2022-12-01T00:15:21;11.80;90.90
36710;DHT22;22694;51.040;3.684;2022-12-01T00:17:47;11.80;90.90
36710;DHT22;22694;51.040;3.684;2022-12-01T00:20:14;11.80;90.90
36710;DHT22;22694;51.040;3.684;2022-12-01T00:22:45;11.80;90.90
36710;DHT22;22694;51.040;3.684;2022-12-01T00:25:12;11.80;90.90
36710;DHT22;22694;51.040;3.684;2022-12-01T00:27:39;12.00;91.00
36710;DHT22;22694;51.040;3.684;2022-12-01T00:30:06;11.80;90.90
36710;DHT22;22694;51.040;3.684;2022-12-01T00:32:33;11.70;90.90
36710;DHT22;22694;51.040;3.684;2022-12-01T00:34:59;11.70;90.90
36710;DHT22;22694;51.040;3.684;2022-12-01T00:37:24;11.70;90.80
36710;DHT22;22694;51.040;3.684;2022-12-01T00:39:50;11.70;90.90
36710;DHT22;22694;51.040;3.684;2022-12-01T00:42:16;11.70;90.90
36710;DHT22;22694;51.040;3.684;2022-12-01T00:44:45;11.70;90.90
36710;DHT22;22694;51.040;3.684;2022-12-01T00:47:12;11.70;90.90
36710;DHT22;22694;51.040;3.684;2022-12-01T00:49:37;11.70;90.90
36710;DHT22;22694;51.040;3.684;2022-12-01T00:52:03;11.60;90.80
36710;DHT22;22694;51.040;3.684;2022-12-01T00:54:29;11.60;90.90
36710;DHT22;22694;51.040;3.684;2022-12-01T00:56:57;11.60;90.80
36710;DHT22;22694;51.040;3.684;2022-12-01T00:59:23;11.60;90.80
36710;DHT22;22694;51.040;3.684;2022-12-01T01:01:48;11.60;90.80
36710;DHT22;22694;51.040;3.684;2022-12-01T01:04:14;11.70;90.80
36710;DHT22;22694;51.040;3.684;2022-12-01T01:06:40;11.80;90.80
36710;DHT22;22694;51.040;3.684;2022-12-01T01:09:08;11.60;90.80
36710;DHT22;22694;51.040;3.684;2022-12-01T01:11:34;11.60;90.80
36710;DHT22;22694;51.040;3.684;2022-12-01T01:14:00;11.50;90.70
36710;DHT22;22694;51.040;3.684;2022-12-01T01:16:26;11.60;90.70
36710;DHT22;22694;51.040;3.684;2022-12-01T01:18:52;12.10;90.90
36710;DHT22;22694;51.040;3.684;2022-12-01T01:21:20;11.50;90.70
36710;DHT22;22694;51.040;3.684;2022-12-01T01:23:47;11.60;90.70
36710;DHT22;22694;51.040;3.684;2022-12-01T01:26:21;11.90;90.80
36710;DHT22;22694;51.040;3.684;2022-12-01T01:28:48;11.50;90.70
36710;DHT22;22694;51.040;3.684;2022-12-01T01:31:17;11.50;90.70
36710;DHT22;22694;51.040;3.684;2022-12-01T01:33:43;11.50;90.60
36710;DHT22;22694;51.040;3.684;2022-12-01T01:36:09;11.50;90.60
36710;DHT22;22694;51.040;3.684;2022-12-01T01:38:35;11.50;90.60
36710;DHT22;22694;51.040;3.684;2022-12-01T01:41:02;11.60;90.60
36710;DHT22;22694;51.040;3.684;2022-12-01T01:46:33;11.50;90.60
36710;DHT22;22694;51.040;3.684;2022-12-01T01:49:07;11.50;90.60
36710;DHT22;22694;51.040;3.684;2022-12-01T01:51:38;11.50;90.60
36710;DHT22;22694;51.040;3.684;2022-12-01T01:54:08;11.50;90.60
36710;DHT22;22694;51.040;3.684;2022-12-01T01:56:42;11.40;90.60
36710;DHT22;22694;51.040;3.684;2022-12-01T01:59:09;11.40;90.60
36710;DHT22;22694;51.040;3.684;2022-12-01T02:01:35;11.40;90.50
36710;DHT22;22694;51.040;3.684;2022-12-01T02:04:02;11.40;90.50
36710;DHT22;22694;51.040;3.684;2022-12-01T02:06:27;11.40;90.50
36710;DHT22;22694;51.040;3.684;2022-12-01T02:08:53;11.40;90.50
36710;DHT22;22694;51.040;3.684;2022-12-01T02:35:52;11.40;90.60
36710;DHT22;22694;51.040;3.684;2022-12-01T02:44:07;11.30;90.60
36710;DHT22;22694;51.040;3.684;2022-12-01T02:46:40;11.30;90.60
36710;DHT22;22694;51.040;3.684;2022-12-01T02:49:21;11.30;90.60
36710;DHT22;22694;51.040;3.684;2022-12-01T02:51:50;11.30;90.60
36710;DHT22;22694;51.040;3.684;2022-12-01T02:54:17;11.30;90.60
36710;DHT22;22694;51.040;3.684;2022-12-01T02:56:43;11.30;90.60
36710;DHT22;22694;51.040;3.684;2022-12-01T02:59:13;11.50;90.70
36710;DHT22;22694;51.040;3.684;2022-12-01T03:07:28;11.20;90.60
36710;DHT22;22694;51.040;3.684;2022-12-01T03:13:01;11.20;90.60
36710;DHT22;22694;51.040;3.684;2022-12-01T03:16:07;11.20;90.70
36710;DHT22;22694;51.040;3.684;2022-12-01T03:18:37;11.20;90.60
36710;DHT22;22694;51.040;3.684;2022-12-01T03:21:12;11.20;90.60
36710;DHT22;22694;51.040;3.684;2022-12-01T03:23:48;11.20;90.70
36710;DHT22;22694;51.040;3.684;2022-12-01T03:26:17;11.20;90.70
36710;DHT22;22694;51.040;3.684;2022-12-01T03:28:54;11.20;90.70
36710;DHT22;22694;51.040;3.684;2022-12-01T03:31:25;11.10;90.70
36710;DHT22;22694;51.040;3.684;2022-12-01T03:33:59;11.20;90.70
36710;DHT22;22694;51.040;3.684;2022-12-01T03:36:35;11.20;90.70
36710;DHT22;22694;51.040;3.684;2022-12-01T03:39:07;11.20;90.70
36710;DHT22;22694;51.040;3.684;2022-12-01T03:41:44;11.20;90.70
36710;DHT22;22694;51.040;3.684;2022-12-01T03:44:19;11.50;90.80
36710;DHT22;22694;51.040;3.684;2022-12-01T03:46:55;11.30;90.80
36710;DHT22;22694;51.040;3.684;2022-12-01T03:49:23;11.10;90.70
36710;DHT22;22694;51.040;3.684;2022-12-01T03:52:32;11.10;90.70
36710;DHT22;22694;51.040;3.684;2022-12-01T03:57:37;11.10;90.80
36710;DHT22;22694;51.040;3.684;2022-12-01T04:00:06;11.20;90.80
36710;DHT22;22694;51.040;3.684;2022-12-01T04:02:33;11.10;90.80
36710;DHT22;22694;51.040;3.684;2022-12-01T04:04:58;11.20;90.80
36710;DHT22;22694;51.040;3.684;2022-12-01T04:07:24;11.10;90.80
36710;DHT22;22694;51.040;3.684;2022-12-01T04:09:49;11.10;90.80
36710;DHT22;22694;51.040;3.684;2022-12-01T04:12:15;11.50;90.90
36710;DHT22;22694;51.040;3.684;2022-12-01T04:15:05;11.20;90.90
36710;DHT22;22694;51.040;3.684;2022-12-01T04:17:32;11.20;90.90
36710;DHT22;22694;51.040;3.684;2022-12-01T04:19:59;11.10;90.90
36710;DHT22;22694;51.040;3.684;2022-12-01T04:22:25;11.20;90.90
36710;DHT22;22694;51.040;3.684;2022-12-01T04:24:51;11.20;90.80
36710;DHT22;22694;51.040;3.684;2022-12-01T04:27:18;11.20;90.80
36710;DHT22;22694;51.040;3.684;2022-12-01T04:29:43;11.20;90.80
36710;DHT22;22694;51.040;3.684;2022-12-01T04:32:09;11.20;90.80
36710;DHT22;22694;51.040;3.684;2022-12-01T04:34:35;11.20;90.80
36710;DHT22;22694;51.040;3.684;2022-12-01T04:37:02;11.20;90.80
36710;DHT22;22694;51.040;3.684;2022-12-01T04:39:28;11.20;90.80
36710;DHT22;22694;51.040;3.684;2022-12-01T04:41:54;11.20;90.80
36710;DHT22;22694;51.040;3.684;2022-12-01T04:44:19;11.20;90.80
36710;DHT22;22694;51.040;3.684;2022-12-01T04:46:45;11.20;90.80
36710;DHT22;22694;51.040;3.684;2022-12-01T04:49:11;11.20;90.80
36710;DHT22;22694;51.040;3.684;2022-12-01T04:51:36;11.20;90.90
36710;DHT22;22694;51.040;3.684;2022-12-01T04:54:02;11.70;91.00
36710;DHT22;22694;51.040;3.684;2022-12-01T04:56:28;11.20;91.10
36710;DHT22;22694;51.040;3.684;2022-12-01T04:58:53;11.20;90.80
36710;DHT22;22694;51.040;3.684;2022-12-01T05:01:19;11.70;91.00
36710;DHT22;22694;51.040;3.684;2022-12-01T05:03:46;11.20;90.90
36710;DHT22;22694;51.040;3.684;2022-12-01T05:06:19;11.20;90.90
36710;DHT22;22694;51.040;3.684;2022-12-01T05:08:46;11.20;90.80
36710;DHT22;22694;51.040;3.684;2022-12-01T05:11:12;11.20;90.80
36710;DHT22;22694;51.040;3.684;2022-12-01T05:13:39;11.20;90.90
36710;DHT22;22694;51.040;3.684;2022-12-01T05:16:11;11.20;90.80
36710;DHT22;22694;51.040;3.684;2022-12-01T05:18:37;11.20;90.80
36710;DHT22;22694;51.040;3.684;2022-12-01T05:21:04;11.20;90.80
36710;DHT22;22694;51.040;3.684;2022-12-01T05:23:33;11.20;90.80
36710;DHT22;22694;51.040;3.684;2022-12-01T05:25:59;11.10;90.80
36710;DHT22;22694;51.040;3.684;2022-12-01T05:28:25;11.10;90.80
36710;DHT22;22694;51.040;3.684;2022-12-01T05:30:52;11.10;90.80
36710;DHT22;22694;51.040;3.684;2022-12-01T05:33:18;11.10;90.80
36710;DHT22;22694;51.040;3.684;2022-12-01T05:35:44;11.10;90.70
36710;DHT22;22694;51.040;3.684;2022-12-01T05:38:10;11.50;90.80
36710;DHT22;22694;51.040;3.684;2022-12-01T05:40:36;11.10;90.70
36710;DHT22;22694;51.040;3.684;2022-12-01T05:43:02;11.10;90.70
36710;DHT22;22694;51.040;3.684;2022-12-01T05:45:28;11.10;90.70
36710;DHT22;22694;51.040;3.684;2022-12-01T05:47:58;11.10;90.70
36710;DHT22;22694;51.040;3.684;2022-12-01T05:50:26;11.50;91.10
36710;DHT22;22694;51.040;3.684;2022-12-01T05:52:51;11.00;90.70
36710;DHT22;22694;51.040;3.684;2022-12-01T05:55:17;11.00;90.70
36710;DHT22;22694;51.040;3.684;2022-12-01T05:57:43;11.00;90.70
36710;DHT22;22694;51.040;3.684;2022-12-01T06:00:09;11.00;90.70
36710;DHT22;22694;51.040;3.684;2022-12-01T06:02:35;11.00;90.70
36710;DHT22;22694;51.040;3.684;2022-12-01T06:05:01;11.00;90.80
36710;DHT22;22694;51.040;3.684;2022-12-01T06:07:26;11.00;90.70
36710;DHT22;22694;51.040;3.684;2022-12-01T06:09:52;11.00;90.80
36710;DHT22;22694;51.040;3.684;2022-12-01T06:12:18;11.50;91.10
36710;DHT22;22694;51.040;3.684;2022-12-01T06:14:44;11.00;90.80
36710;DHT22;22694;51.040;3.684;2022-12-01T06:17:10;11.10;90.80
36710;DHT22;22694;51.040;3.684;2022-12-01T06:19:36;10.90;90.70
36710;DHT22;22694;51.040;3.684;2022-12-01T06:22:02;11.30;90.90
36710;DHT22;22694;51.040;3.684;2022-12-01T06:24:28;10.90;90.80
36710;DHT22;22694;51.040;3.684;2022-12-01T06:26:53;11.00;90.80
36710;DHT22;22694;51.040;3.684;2022-12-01T06:29:19;10.90;90.80
36710;DHT22;22694;51.040;3.684;2022-12-01T06:31:44;10.90;90.80
36710;DHT22;22694;51.040;3.684;2022-12-01T06:34:10;10.90;90.80
36710;DHT22;22694;51.040;3.684;2022-12-01T06:36:36;10.90;90.80
36710;DHT22;22694;51.040;3.684;2022-12-01T06:39:05;10.90;90.80
36710;DHT22;22694;51.040;3.684;2022-12-01T06:41:33;10.90;90.80
36710;DHT22;22694;51.040;3.684;2022-12-01T06:44:00;11.00;90.90
36710;DHT22;22694;51.040;3.684;2022-12-01T06:46:26;10.90;90.90
36710;DHT22;22694;51.040;3.684;2022-12-01T06:48:52;11.00;90.90
36710;DHT22;22694;51.040;3.684;2022-12-01T06:51:17;10.90;90.90
36710;DHT22;22694;51.040;3.684;2022-12-01T06:53:43;10.90;90.90
36710;DHT22;22694;51.040;3.684;2022-12-01T06:56:08;11.00;91.70
36710;DHT22;22694;51.040;3.684;2022-12-01T06:58:34;11.20;94.90
36710;DHT22;22694;51.040;3.684;2022-12-01T07:01:00;11.90;95.20
36710;DHT22;22694;51.040;3.684;2022-12-01T07:03:31;11.80;94.20
36710;DHT22;22694;51.040;3.684;2022-12-01T07:05:58;12.00;93.70
36710;DHT22;22694;51.040;3.684;2022-12-01T07:08:25;12.20;93.40
36710;DHT22;22694;51.040;3.684;2022-12-01T07:11:00;12.30;93.10
36710;DHT22;22694;51.040;3.684;2022-12-01T07:13:26;12.40;92.90
36710;DHT22;22694;51.040;3.684;2022-12-01T07:15:52;12.50;92.70
36710;DHT22;22694;51.040;3.684;2022-12-01T07:18:18;12.60;92.50
36710;DHT22;22694;51.040;3.684;2022-12-01T07:20:43;13.00;92.40
36710;DHT22;22694;51.040;3.684;2022-12-01T07:23:09;13.00;92.30
36710;DHT22;22694;51.040;3.684;2022-12-01T07:25:35;12.70;92.10
36710;DHT22;22694;51.040;3.684;2022-12-01T07:28:00;12.80;92.00
36710;DHT22;22694;51.040;3.684;2022-12-01T07:30:26;12.80;91.90
36710;DHT22;22694;51.040;3.684;2022-12-01T07:32:52;12.80;91.80
36710;DHT22;22694;51.040;3.684;2022-12-01T07:35:17;12.90;91.70
36710;DHT22;22694;51.040;3.684;2022-12-01T07:37:43;12.90;91.60
36710;DHT22;22694;51.040;3.684;2022-12-01T07:40:09;13.40;91.60
36710;DHT22;22694;51.040;3.684;2022-12-01T07:42:35;13.00;91.50
36710;DHT22;22694;51.040;3.684;2022-12-01T07:45:00;13.50;91.50
36710;DHT22;22694;51.040;3.684;2022-12-01T07:47:26;13.00;91.30
36710;DHT22;22694;51.040;3.684;2022-12-01T07:49:52;13.10;91.30
36710;DHT22;22694;51.040;3.684;2022-12-01T07:52:17;13.10;91.20
36710;DHT22;22694;51.040;3.684;2022-12-01T07:54:43;13.10;91.20
36710;DHT22;22694;51.040;3.684;2022-12-01T07:57:09;13.40;91.20
36710;DHT22;22694;51.040;3.684;2022-12-01T07:59:38;13.10;91.10
36710;DHT22;22694;51.040;3.684;2022-12-01T08:02:04;13.10;91.00
36710;DHT22;22694;51.040;3.684;2022-12-01T08:04:30;13.10;91.00
36710;DHT22;22694;51.040;3.684;2022-12-01T08:06:55;13.10;90.90
36710;DHT22;22694;51.040;3.684;2022-12-01T08:09:21;13.10;91.00
36710;DHT22;22694;51.040;3.684;2022-12-01T08:11:47;13.00;91.20
36710;DHT22;22694;51.040;3.684;2022-12-01T08:14:13;13.10;90.80
36710;DHT22;22694;51.040;3.684;2022-12-01T08:16:38;13.00;90.70
36710;DHT22;22694;51.040;3.684;2022-12-01T08:19:04;13.00;90.60
36710;DHT22;22694;51.040;3.684;2022-12-01T08:21:30;12.90;90.40
36710;DHT22;22694;51.040;3.684;2022-12-01T08:23:56;12.90;90.10
36710;DHT22;22694;51.040;3.684;2022-12-01T08:26:23;12.80;89.90
36710;DHT22;22694;51.040;3.684;2022-12-01T08:28:50;12.80;89.80
36710;DHT22;22694;51.040;3.684;2022-12-01T08:31:29;12.70;89.40
36710;DHT22;22694;51.040;3.684;2022-12-01T08:33:55;12.70;89.70
36710;DHT22;22694;51.040;3.684;2022-12-01T08:36:22;12.70;90.00
36710;DHT22;22694;51.040;3.684;2022-12-01T08:38:50;12.70;90.00
36710;DHT22;22694;51.040;3.684;2022-12-01T08:41:16;12.60;89.90
36710;DHT22;22694;51.040;3.684;2022-12-01T08:43:42;12.70;89.90
36710;DHT22;22694;51.040;3.684;2022-12-01T08:46:13;12.60;90.00
36710;DHT22;22694;51.040;3.684;2022-12-01T08:48:39;12.90;90.10
36710;DHT22;22694;51.040;3.684;2022-12-01T08:51:11;12.60;90.10
36710;DHT22;22694;51.040;3.684;2022-12-01T08:53:40;12.60;90.00
36710;DHT22;22694;51.040;3.684;2022-12-01T08:56:10;12.50;90.00
36710;DHT22;22694;51.040;3.684;2022-12-01T08:58:36;12.60;90.10
36710;DHT22;22694;51.040;3.684;2022-12-01T09:01:07;12.50;90.00
36710;DHT22;22694;51.040;3.684;2022-12-01T09:03:35;12.50;90.00
36710;DHT22;22694;51.040;3.684;2022-12-01T09:06:05;12.60;89.90
36710;DHT22;22694;51.040;3.684;2022-12-01T09:08:32;12.50;89.80
36710;DHT22;22694;51.040;3.684;2022-12-01T09:11:02;12.50;89.80
36710;DHT22;22694;51.040;3.684;2022-12-01T09:13:28;12.50;90.00
36710;DHT22;22694;51.040;3.684;2022-12-01T09:15:59;12.50;90.00
36710;DHT22;22694;51.040;3.684;2022-12-01T09:18:25;12.40;89.90
36710;DHT22;22694;51.040;3.684;2022-12-01T09:23:16;12.50;90.10
36710;DHT22;22694;51.040;3.684;2022-12-01T09:25:42;12.50;90.00
36710;DHT22;22694;51.040;3.684;2022-12-01T09:28:08;12.50;89.80
36710;DHT22;22694;51.040;3.684;2022-12-01T09:30:34;12.60;90.00
36710;DHT22;22694;51.040;3.684;2022-12-01T09:33:00;12.40;89.60
36710;DHT22;22694;51.040;3.684;2022-12-01T09:35:25;12.40;89.60
36710;DHT22;22694;51.040;3.684;2022-12-01T09:37:51;12.50;89.90
36710;DHT22;22694;51.040;3.684;2022-12-01T09:40:17;12.40;90.50
36710;DHT22;22694;51.040;3.684;2022-12-01T09:42:44;12.50;90.40
36710;DHT22;22694;51.040;3.684;2022-12-01T09:45:23;12.50;90.60
36710;DHT22;22694;51.040;3.684;2022-12-01T09:47:49;12.60;90.80
36710;DHT22;22694;51.040;3.684;2022-12-01T09:50:19;12.60;91.20
36710;DHT22;22694;51.040;3.684;2022-12-01T09:52:51;12.70;91.10
36710;DHT22;22694;51.040;3.684;2022-12-01T09:55:20;12.80;91.20
36710;DHT22;22694;51.040;3.684;2022-12-01T09:57:48;12.80;91.30
36710;DHT22;22694;51.040;3.684;2022-12-01T10:00:15;12.80;91.40
36710;DHT22;22694;51.040;3.684;2022-12-01T10:02:50;12.90;91.60
36710;DHT22;22694;51.040;3.684;2022-12-01T10:05:22;13.00;92.10
36710;DHT22;22694;51.040;3.684;2022-12-01T10:10:26;13.20;92.30
36710;DHT22;22694;51.040;3.684;2022-12-01T10:12:52;13.30;92.10
36710;DHT22;22694;51.040;3.684;2022-12-01T10:15:42;13.30;91.90
36710;DHT22;22694;51.040;3.684;2022-12-01T10:23:27;13.50;91.80
36710;DHT22;22694;51.040;3.684;2022-12-01T10:25:57;13.60;91.70
36710;DHT22;22694;51.040;3.684;2022-12-01T10:31:03;13.90;92.80
36710;DHT22;22694;51.040;3.684;2022-12-01T10:33:38;14.10;92.60
36710;DHT22;22694;51.040;3.684;2022-12-01T10:36:07;14.10;91.80
36710;DHT22;22694;51.040;3.684;2022-12-01T10:38:35;14.00;90.60
36710;DHT22;22694;51.040;3.684;2022-12-01T10:41:03;13.90;90.50
36710;DHT22;22694;51.040;3.684;2022-12-01T10:43:43;13.80;87.80
36710;DHT22;22694;51.040;3.684;2022-12-01T10:46:37;13.60;85.70
36710;DHT22;22694;51.040;3.684;2022-12-01T10:49:18;13.50;85.40
36710;DHT22;22694;51.040;3.684;2022-12-01T10:51:56;13.50;91.50
36710;DHT22;22694;51.040;3.684;2022-12-01T10:54:30;13.90;93.90
36710;DHT22;22694;51.040;3.684;2022-12-01T10:56:56;13.70;92.00
36710;DHT22;22694;51.040;3.684;2022-12-01T10:59:34;13.60;88.80
36710;DHT22;22694;51.040;3.684;2022-12-01T11:02:01;13.30;86.60
36710;DHT22;22694;51.040;3.684;2022-12-01T11:04:51;13.10;86.20
36710;DHT22;22694;51.040;3.684;2022-12-01T11:07:33;13.00;86.40
36710;DHT22;22694;51.040;3.684;2022-12-01T11:10:12;12.80;86.90
36710;DHT22;22694;51.040;3.684;2022-12-01T11:12:39;12.70;87.50
36710;DHT22;22694;51.040;3.684;2022-12-01T11:15:06;12.70;88.00
36710;DHT22;22694;51.040;3.684;2022-12-01T11:17:36;12.60;88.20
36710;DHT22;22694;51.040;3.684;2022-12-01T11:28:54;12.80;90.20
36710;DHT22;22694;51.040;3.684;2022-12-01T11:31:34;12.80;90.20
36710;DHT22;22694;51.040;3.684;2022-12-01T11:34:00;13.10;96.50
36710;DHT22;22694;51.040;3.684;2022-12-01T11:36:41;13.40;95.00
36710;DHT22;22694;51.040;3.684;2022-12-01T11:39:21;13.70;94.10
36710;DHT22;22694;51.040;3.684;2022-12-01T11:41:48;13.80;93.80
36710;DHT22;22694;51.040;3.684;2022-12-01T11:44:19;13.90;94.10
36710;DHT22;22694;51.040;3.684;2022-12-01T11:46:46;14.00;94.20
36710;DHT22;22694;51.040;3.684;2022-12-01T11:49:17;14.10;94.50
36710;DHT22;22694;51.040;3.684;2022-12-01T11:51:43;14.20;94.60
36710;DHT22;22694;51.040;3.684;2022-12-01T11:56:45;14.30;94.30
36710;DHT22;22694;51.040;3.684;2022-12-01T11:59:16;14.40;94.40
36710;DHT22;22694;51.040;3.684;2022-12-01T12:18:06;13.40;89.60
36710;DHT22;22694;51.040;3.684;2022-12-01T12:26:24;13.30;89.30
36710;DHT22;22694;51.040;3.684;2022-12-01T12:31:34;13.10;89.20
36710;DHT22;22694;51.040;3.684;2022-12-01T12:36:48;13.10;89.30
36710;DHT22;22694;51.040;3.684;2022-12-01T12:39:39;13.10;89.30
36710;DHT22;22694;51.040;3.684;2022-12-01T12:44:51;13.10;89.50
36710;DHT22;22694;51.040;3.684;2022-12-01T12:50:36;13.00;89.60
36710;DHT22;22694;51.040;3.684;2022-12-01T12:53:11;13.00;89.70
36710;DHT22;22694;51.040;3.684;2022-12-01T12:55:45;12.90;89.70
36710;DHT22;22694;51.040;3.684;2022-12-01T12:58:17;13.00;89.80
36710;DHT22;22694;51.040;3.684;2022-12-01T13:01:12;13.00;90.00
36710;DHT22;22694;51.040;3.684;2022-12-01T13:03:54;13.00;90.00
36710;DHT22;22694;51.040;3.684;2022-12-01T13:06:38;12.90;90.00
36710;DHT22;22694;51.040;3.684;2022-12-01T13:09:19;12.90;90.00
36710;DHT22;22694;51.040;3.684;2022-12-01T13:11:56;13.20;90.20
36710;DHT22;22694;51.040;3.684;2022-12-01T13:14:28;12.90;90.20
36710;DHT22;22694;51.040;3.684;2022-12-01T13:17:00;12.90;90.10
36710;DHT22;22694;51.040;3.684;2022-12-01T13:19:30;12.90;90.20
36710;DHT22;22694;51.040;3.684;2022-12-01T13:21:57;12.80;90.10
36710;DHT22;22694;51.040;3.684;2022-12-01T13:24:27;12.80;90.20
36710;DHT22;22694;51.040;3.684;2022-12-01T13:29:33;12.80;90.10
36710;DHT22;22694;51.040;3.684;2022-12-01T13:31:59;12.80;90.20
36710;DHT22;22694;51.040;3.684;2022-12-01T13:34:37;13.10;90.30
36710;DHT22;22694;51.040;3.684;2022-12-01T13:37:04;12.80;90.20
36710;DHT22;22694;51.040;3.684;2022-12-01T13:39:32;12.80;90.30
36710;DHT22;22694;51.040;3.684;2022-12-01T13:42:07;12.70;90.50
36710;DHT22;22694;51.040;3.684;2022-12-01T13:44:38;12.80;90.30
36710;DHT22;22694;51.040;3.684;2022-12-01T13:47:38;12.70;90.20
36710;DHT22;22694;51.040;3.684;2022-12-01T13:51:05;12.70;90.30
36710;DHT22;22694;51.040;3.684;2022-12-01T13:58:25;12.60;90.30
36710;DHT22;22694;51.040;3.684;2022-12-01T14:00:51;12.80;90.40
36710;DHT22;22694;51.040;3.684;2022-12-01T14:08:24;12.70;90.40
36710;DHT22;22694;51.040;3.684;2022-12-01T14:11:04;12.60;90.60
36710;DHT22;22694;51.040;3.684;2022-12-01T14:13:44;12.70;91.00
36710;DHT22;22694;51.040;3.684;2022-12-01T14:16:10;12.80;91.00
36710;DHT22;22694;51.040;3.684;2022-12-01T14:18:39;13.00;93.00
36710;DHT22;22694;51.040;3.684;2022-12-01T14:21:09;13.10;92.80
36710;DHT22;22694;51.040;3.684;2022-12-01T14:23:39;13.00;91.20
36710;DHT22;22694;51.040;3.684;2022-12-01T14:26:16;12.90;90.20
36710;DHT22;22694;51.040;3.684;2022-12-01T14:31:21;12.70;89.80
36710;DHT22;22694;51.040;3.684;2022-12-01T14:34:00;12.60;90.10
36710;DHT22;22694;51.040;3.684;2022-12-01T14:36:35;12.50;90.20
36710;DHT22;22694;51.040;3.684;2022-12-01T14:39:16;12.40;90.30
36710;DHT22;22694;51.040;3.684;2022-12-01T14:44:21;12.40;90.50
36710;DHT22;22694;51.040;3.684;2022-12-01T14:47:07;12.40;90.60
36710;DHT22;22694;51.040;3.684;2022-12-01T14:50:03;12.30;90.60
36710;DHT22;22694;51.040;3.684;2022-12-01T14:52:40;12.20;90.60
36710;DHT22;22694;51.040;3.684;2022-12-01T14:55:36;12.20;90.70
36710;DHT22;22694;51.040;3.684;2022-12-01T14:58:04;12.20;90.80
36710;DHT22;22694;51.040;3.684;2022-12-01T15:00:34;12.10;91.00
36710;DHT22;22694;51.040;3.684;2022-12-01T15:03:08;12.10;90.50
36710;DHT22;22694;51.040;3.684;2022-12-01T15:05:41;12.30;91.20
36710;DHT22;22694;51.040;3.684;2022-12-01T15:08:23;12.40;91.40
36710;DHT22;22694;51.040;3.684;2022-12-01T15:10:51;12.50;91.30
36710;DHT22;22694;51.040;3.684;2022-12-01T15:13:24;12.60;91.20
36710;DHT22;22694;51.040;3.684;2022-12-01T15:15:57;13.00;91.30
36710;DHT22;22694;51.040;3.684;2022-12-01T15:18:28;12.90;92.10
36710;DHT22;22694;51.040;3.684;2022-12-01T15:23:34;12.90;91.10
36710;DHT22;22694;51.040;3.684;2022-12-01T15:26:00;12.90;90.80
36710;DHT22;22694;51.040;3.684;2022-12-01T15:28:32;12.90;90.60
36710;DHT22;22694;51.040;3.684;2022-12-01T15:30:59;12.90;90.50
36710;DHT22;22694;51.040;3.684;2022-12-01T15:33:31;12.90;90.30
36710;DHT22;22694;51.040;3.684;2022-12-01T15:35:58;12.90;90.20
36710;DHT22;22694;51.040;3.684;2022-12-01T15:38:28;12.90;90.10
36710;DHT22;22694;51.040;3.684;2022-12-01T15:40:55;12.90;90.00
36710;DHT22;22694;51.040;3.684;2022-12-01T15:43:33;12.90;90.00
36710;DHT22;22694;51.040;3.684;2022-12-01T15:48:36;12.80;89.60
36710;DHT22;22694;51.040;3.684;2022-12-01T15:53:44;12.90;89.40
36710;DHT22;22694;51.040;3.684;2022-12-01T15:56:12;12.80;89.20
36710;DHT22;22694;51.040;3.684;2022-12-01T15:58:44;13.00;93.00
36710;DHT22;22694;51.040;3.684;2022-12-01T16:01:11;13.30;92.70
36710;DHT22;22694;51.040;3.684;2022-12-01T16:03:57;13.20;91.70
36710;DHT22;22694;51.040;3.684;2022-12-01T16:06:30;13.10;90.80
36710;DHT22;22694;51.040;3.684;2022-12-01T16:09:04;12.90;90.00
36710;DHT22;22694;51.040;3.684;2022-12-01T16:11:30;12.80;90.00
36710;DHT22;22694;51.040;3.684;2022-12-01T16:14:02;12.70;90.00
36710;DHT22;22694;51.040;3.684;2022-12-01T16:16:48;12.60;90.00
36710;DHT22;22694;51.040;3.684;2022-12-01T16:24:22;12.50;90.00
36710;DHT22;22694;51.040;3.684;2022-12-01T16:26:59;12.50;90.00
36710;DHT22;22694;51.040;3.684;2022-12-01T16:29:27;12.40;90.00
36710;DHT22;22694;51.040;3.684;2022-12-01T16:31:55;12.40;90.00
36710;DHT22;22694;51.040;3.684;2022-12-01T16:34:22;12.40;89.90
36710;DHT22;22694;51.040;3.684;2022-12-01T16:36:48;12.40;90.00
36710;DHT22;22694;51.040;3.684;2022-12-01T16:39:15;12.40;90.10
36710;DHT22;22694;51.040;3.684;2022-12-01T16:41:41;12.30;90.00
36710;DHT22;22694;51.040;3.684;2022-12-01T16:44:15;12.30;89.90
36710;DHT22;22694;51.040;3.684;2022-12-01T16:46:41;12.30;89.90
36710;DHT22;22694;51.040;3.684;2022-12-01T16:49:07;12.30;89.90
36710;DHT22;22694;51.040;3.684;2022-12-01T16:51:34;12.30;90.00
36710;DHT22;22694;51.040;3.684;2022-12-01T16:54:00;12.30;89.90
36710;DHT22;22694;51.040;3.684;2022-12-01T16:56:25;12.20;89.90
36710;DHT22;22694;51.040;3.684;2022-12-01T16:58:51;12.20;90.00
36710;DHT22;22694;51.040;3.684;2022-12-01T17:01:17;12.30;90.00
36710;DHT22;22694;51.040;3.684;2022-12-01T17:03:42;12.20;90.00
36710;DHT22;22694;51.040;3.684;2022-12-01T17:06:12;12.10;90.00
36710;DHT22;22694;51.040;3.684;2022-12-01T17:08:40;12.20;89.90
36710;DHT22;22694;51.040;3.684;2022-12-01T17:11:05;12.10;89.70
36710;DHT22;22694;51.040;3.684;2022-12-01T17:13:31;12.10;89.80
36710;DHT22;22694;51.040;3.684;2022-12-01T17:15:57;12.10;89.80
36710;DHT22;22694;51.040;3.684;2022-12-01T17:18:23;12.10;89.70
36710;DHT22;22694;51.040;3.684;2022-12-01T17:21:00;12.00;89.70
36710;DHT22;22694;51.040;3.684;2022-12-01T17:23:26;12.00;89.70
36710;DHT22;22694;51.040;3.684;2022-12-01T17:25:53;12.30;90.00
36710;DHT22;22694;51.040;3.684;2022-12-01T17:28:19;12.10;90.00
36710;DHT22;22694;51.040;3.684;2022-12-01T17:30:44;12.00;89.80
36710;DHT22;22694;51.040;3.684;2022-12-01T17:33:10;12.00;89.70
36710;DHT22;22694;51.040;3.684;2022-12-01T17:35:39;12.00;89.80
36710;DHT22;22694;51.040;3.684;2022-12-01T17:38:05;12.00;89.70
36710;DHT22;22694;51.040;3.684;2022-12-01T17:40:31;11.90;89.80
36710;DHT22;22694;51.040;3.684;2022-12-01T17:42:57;12.00;89.90
36710;DHT22;22694;51.040;3.684;2022-12-01T17:45:22;11.90;89.60
36710;DHT22;22694;51.040;3.684;2022-12-01T17:47:48;11.90;89.60
36710;DHT22;22694;51.040;3.684;2022-12-01T17:50:14;11.90;89.50
36710;DHT22;22694;51.040;3.684;2022-12-01T17:52:40;11.80;89.50
36710;DHT22;22694;51.040;3.684;2022-12-01T17:55:06;11.80;89.60
36710;DHT22;22694;51.040;3.684;2022-12-01T17:57:32;11.80;89.40